createdAt,value
2018-03-22T00:02:20.933Z,10.17
2018-03-22T00:05:24.533Z,9.03
2018-03-22T00:08:29.888Z,9.63
2018-03-22T00:11:34.309Z,9.47
2018-03-22T00:14:37.802Z,11.07
2018-03-22T00:17:42.283Z,10.50
2018-03-22T00:20:45.721Z,11.87
2018-03-22T00:23:49.274Z,10.23
2018-03-22T00:26:52.674Z,9.67
2018-03-22T00:29:56.068Z,7.80
2018-03-22T00:32:59.585Z,11.47
2018-03-22T00:36:03.117Z,9.23
2018-03-22T00:39:06.604Z,7.73
2018-03-22T00:42:10.097Z,9.93
2018-03-22T00:45:13.638Z,9.27
2018-03-22T00:48:17.089Z,8.47
2018-03-22T00:51:20.518Z,9.80
2018-03-22T00:54:27.617Z,9.27
2018-03-22T00:57:32.249Z,10.50
2018-03-22T01:00:41.428Z,9.17
2018-03-22T01:03:50.481Z,9.57
2018-03-22T01:06:53.877Z,10.13
2018-03-22T01:09:57.367Z,17.83
2018-03-22T01:13:12.523Z,10.63
2018-03-22T01:16:15.913Z,10.57
2018-03-22T01:19:20.313Z,10.73
2018-03-22T01:22:24.771Z,11.20
2018-03-22T01:25:32.653Z,10.57
2018-03-22T01:28:40.257Z,10.33
2018-03-22T01:31:51.009Z,12.53
2018-03-22T01:34:59.712Z,12.67
2018-03-22T01:38:05.247Z,13.83
2018-03-22T01:41:09.697Z,10.90
2018-03-22T01:44:16.941Z,14.43
2018-03-22T01:47:20.455Z,11.50
2018-03-22T01:50:23.933Z,13.37
2018-03-22T01:53:27.420Z,11.93
2018-03-22T01:56:32.785Z,11.97
2018-03-22T01:59:36.161Z,11.07
2018-03-22T02:02:49.181Z,9.37
2018-03-22T02:05:54.537Z,9.03
2018-03-22T02:09:04.165Z,8.83
2018-03-22T02:12:07.470Z,12.03
2018-03-22T02:15:10.825Z,14.20
2018-03-22T02:18:20.064Z,16.10
2018-03-22T02:21:25.488Z,11.27
2018-03-22T02:24:28.951Z,13.53
2018-03-22T02:27:33.450Z,12.10
2018-03-22T02:30:36.941Z,18.33
2018-03-22T02:33:41.321Z,11.03
2018-03-22T02:36:54.481Z,13.33
2018-03-22T02:39:58.014Z,9.97
2018-03-22T02:43:01.432Z,12.00
2018-03-22T02:46:09.340Z,9.57
2018-03-22T02:49:12.786Z,9.87
2018-03-22T02:52:21.754Z,11.63
2018-03-22T02:55:28.985Z,9.83
2018-03-22T02:58:38.912Z,8.97
2018-03-22T03:01:46.941Z,11.17
2018-03-22T03:04:50.286Z,12.60
2018-03-22T03:07:53.902Z,11.30
2018-03-22T03:10:58.269Z,11.33
2018-03-22T03:14:01.732Z,11.47
2018-03-22T03:17:05.159Z,10.13
2018-03-22T03:20:08.729Z,7.03
2018-03-22T03:23:15.984Z,8.47
2018-03-22T03:26:19.449Z,8.10
2018-03-22T03:32:51.028Z,10.00
2018-03-22T03:35:56.528Z,9.50
2018-03-22T03:38:59.953Z,10.13
2018-03-22T03:42:03.404Z,11.33
2018-03-22T03:45:07.776Z,15.77
2018-03-22T03:48:15.656Z,15.20
2018-03-22T03:51:20.152Z,10.23
2018-03-22T03:54:23.625Z,10.63
2018-03-22T03:57:28.119Z,9.53
2018-03-22T04:00:31.529Z,9.60
2018-03-22T04:03:35.033Z,10.27
2018-03-22T04:06:38.414Z,7.77
2018-03-22T04:09:43.881Z,15.13
2018-03-22T04:12:47.311Z,7.93
2018-03-22T04:15:50.789Z,8.67
2018-03-22T04:18:58.362Z,9.23
2018-03-22T04:22:01.694Z,10.27
2018-03-22T04:25:06.262Z,10.10
2018-03-22T04:28:11.831Z,12.03
2018-03-22T04:31:19.189Z,6.80
2018-03-22T04:34:22.646Z,9.30
2018-03-22T04:37:31.137Z,9.33
2018-03-22T04:40:36.560Z,8.17
2018-03-22T04:43:40.013Z,8.47
2018-03-22T04:46:44.899Z,8.43
2018-03-22T04:49:48.373Z,9.80
2018-03-22T04:52:52.754Z,9.13
2018-03-22T04:55:58.293Z,8.53
2018-03-22T04:59:02.091Z,9.13
2018-03-22T05:02:06.647Z,7.80
2018-03-22T05:05:10.105Z,7.40
2018-03-22T05:08:13.604Z,8.50
2018-03-22T05:11:18.610Z,12.23
2018-03-22T05:14:22.029Z,7.90
2018-03-22T05:17:30.173Z,11.00
2018-03-22T05:20:33.696Z,10.93
2018-03-22T05:23:38.156Z,8.60
2018-03-22T05:26:42.409Z,8.37
2018-03-22T05:29:46.764Z,8.07
2018-03-22T05:32:55.677Z,10.37
2018-03-22T05:35:59.183Z,10.37
2018-03-22T05:39:06.693Z,7.47
2018-03-22T05:42:10.108Z,7.87
2018-03-22T05:45:13.581Z,7.67
2018-03-22T05:48:16.897Z,9.63
2018-03-22T05:51:20.409Z,7.80
2018-03-22T05:54:24.878Z,9.80
2018-03-22T05:57:30.078Z,7.53
2018-03-22T06:00:33.431Z,15.00
2018-03-22T06:03:41.359Z,10.90
2018-03-22T06:06:44.689Z,9.00
2018-03-22T06:09:49.060Z,9.10
2018-03-22T06:12:52.473Z,10.67
2018-03-22T06:15:55.820Z,9.00
2018-03-22T06:19:00.103Z,15.40
2018-03-22T06:22:03.479Z,11.30
2018-03-22T06:25:06.885Z,9.83
2018-03-22T06:28:12.200Z,10.60
2018-03-22T06:31:15.483Z,10.40
2018-03-22T06:34:20.869Z,12.90
2018-03-22T06:37:31.806Z,10.87
2018-03-22T06:40:35.276Z,10.70
2018-03-22T06:43:38.540Z,9.17
2018-03-22T06:46:42.997Z,11.43
2018-03-22T06:49:46.406Z,9.27
2018-03-22T06:52:49.849Z,7.90
2018-03-22T06:55:53.180Z,8.20
2018-03-22T06:58:57.528Z,9.53
2018-03-22T07:02:02.981Z,10.97
2018-03-22T07:05:07.357Z,10.07
2018-03-22T07:08:10.770Z,9.03
2018-03-22T07:11:14.184Z,9.43
2018-03-22T07:14:19.912Z,10.33
2018-03-22T07:17:30.380Z,12.47
2018-03-22T07:20:33.834Z,10.63
2018-03-22T07:23:37.316Z,10.50
2018-03-22T07:26:50.717Z,12.13
2018-03-22T07:29:57.066Z,8.67
2018-03-22T07:33:01.091Z,11.23
2018-03-22T07:36:04.541Z,11.53
2018-03-22T07:39:13.802Z,8.63
2018-03-22T07:42:17.960Z,11.17
2018-03-22T07:45:22.107Z,11.20
2018-03-22T07:48:25.316Z,11.37
2018-03-22T07:51:28.464Z,11.67
2018-03-22T07:54:32.021Z,8.27
2018-03-22T07:57:37.204Z,11.53
2018-03-22T08:00:42.483Z,10.27
2018-03-22T08:03:51.861Z,11.67
2018-03-22T08:06:57.032Z,11.90
2018-03-22T08:10:00.245Z,11.23
2018-03-22T08:13:07.817Z,10.27
2018-03-22T08:16:11.049Z,9.70
2018-03-22T08:19:16.327Z,11.57
2018-03-22T08:22:24.977Z,9.80
2018-03-22T08:25:28.176Z,11.53
2018-03-22T08:28:32.328Z,11.10
2018-03-22T08:31:36.534Z,13.33
2018-03-22T08:34:48.166Z,13.97
2018-03-22T08:37:53.296Z,13.13
2018-03-22T08:40:59.794Z,10.20
2018-03-22T08:44:03.007Z,11.97
2018-03-22T08:47:07.570Z,10.33
2018-03-22T08:50:16.097Z,12.33
2018-03-22T08:53:19.599Z,11.60
2018-03-22T08:56:22.912Z,10.53
2018-03-22T08:59:29.974Z,9.37
2018-03-22T09:02:33.341Z,8.43
2018-03-22T09:05:44.150Z,10.33
2018-03-22T09:08:48.049Z,10.20
2018-03-22T09:11:51.572Z,11.70
2018-03-22T09:15:07.342Z,11.40
2018-03-22T09:18:10.557Z,11.33
2018-03-22T09:21:14.074Z,12.17
2018-03-22T09:24:17.293Z,12.83
2018-03-22T09:27:21.729Z,10.80
2018-03-22T09:30:24.945Z,19.10
2018-03-22T09:33:28.218Z,13.33
2018-03-22T09:36:31.410Z,11.47
2018-03-22T09:39:34.578Z,12.83
2018-03-22T09:42:37.828Z,14.80
2018-03-22T09:45:41.012Z,15.20
2018-03-22T09:48:44.192Z,17.70
2018-03-22T09:51:47.375Z,14.70
2018-03-22T09:54:51.618Z,16.43
2018-03-22T09:57:54.827Z,12.33
2018-03-22T10:00:58.108Z,12.60
2018-03-22T10:04:01.264Z,15.30
2018-03-22T10:07:04.503Z,12.67
2018-03-22T10:10:07.786Z,10.70
2018-03-22T10:13:11.042Z,14.13
2018-03-22T10:16:14.282Z,14.03
2018-03-22T10:19:17.474Z,13.77
2018-03-22T10:22:21.354Z,16.33
2018-03-22T10:25:24.581Z,14.40
2018-03-22T10:28:27.799Z,16.07
2018-03-22T10:31:31.102Z,19.23
2018-03-22T10:34:34.283Z,13.77
2018-03-22T10:37:37.460Z,15.37
2018-03-22T10:40:40.692Z,16.33
2018-03-22T10:43:43.863Z,15.10
2018-03-22T10:46:48.034Z,14.93
2018-03-22T10:49:52.417Z,17.80
2018-03-22T10:52:55.579Z,15.83
2018-03-22T10:55:58.781Z,17.60
2018-03-22T10:59:01.938Z,17.20
2018-03-22T11:02:09.370Z,17.27
2018-03-22T11:05:12.520Z,17.50
2018-03-22T11:08:15.765Z,18.70
2018-03-22T11:11:19.954Z,22.50
2018-03-22T11:14:23.195Z,21.30
2018-03-22T11:17:26.405Z,16.47
2018-03-22T11:20:29.608Z,19.93
2018-03-22T11:23:32.877Z,18.97
2018-03-22T11:26:36.100Z,19.17
2018-03-22T11:29:39.282Z,16.30
2018-03-22T11:32:42.585Z,17.37
2018-03-22T11:35:45.756Z,21.50
2018-03-22T11:38:49.936Z,18.00
2018-03-22T11:41:53.118Z,17.30
2018-03-22T11:44:56.346Z,16.87
2018-03-22T11:47:59.563Z,20.17
2018-03-22T11:51:02.859Z,16.77
2018-03-22T11:54:06.088Z,22.23
2018-03-22T11:57:09.303Z,17.87
2018-03-22T12:00:12.557Z,17.57
2018-03-22T12:03:15.875Z,19.70
2018-03-22T12:06:19.607Z,19.83
2018-03-22T12:09:22.843Z,21.83
2018-03-22T12:12:26.134Z,21.20
2018-03-22T12:15:29.335Z,23.37
2018-03-22T12:18:32.590Z,23.80
2018-03-22T12:21:35.880Z,21.33
2018-03-22T12:24:39.034Z,26.60
2018-03-22T12:27:42.259Z,19.77
2018-03-22T12:30:45.551Z,26.63
2018-03-22T12:33:49.588Z,24.43
2018-03-22T12:36:52.810Z,19.07
2018-03-22T12:39:56.058Z,20.50
2018-03-22T12:42:59.237Z,20.07
2018-03-22T12:46:02.574Z,22.70
2018-03-22T12:49:05.794Z,20.63
2018-03-22T12:52:09.010Z,18.77
2018-03-22T12:55:12.198Z,20.67
2018-03-22T12:58:15.524Z,18.73
2018-03-22T13:01:19.579Z,16.90
2018-03-22T13:04:22.742Z,15.80
2018-03-22T13:07:26.046Z,18.23
2018-03-22T13:10:29.376Z,13.93
2018-03-22T13:13:32.571Z,21.10
2018-03-22T13:16:35.803Z,20.10
2018-03-22T13:19:39.089Z,23.33
2018-03-22T13:22:42.303Z,21.20
2018-03-22T13:25:45.546Z,25.10
2018-03-22T13:28:48.728Z,21.47
2018-03-22T13:31:52.444Z,20.30
2018-03-22T13:34:55.642Z,21.80
2018-03-22T13:37:58.894Z,19.83
2018-03-22T13:41:02.207Z,20.87
2018-03-22T13:44:05.414Z,23.20
2018-03-22T13:47:09.434Z,21.07
2018-03-22T13:50:12.755Z,21.53
2018-03-22T13:53:15.970Z,19.10
2018-03-22T13:56:19.164Z,21.70
2018-03-22T13:59:23.453Z,22.03
2018-03-22T14:02:26.732Z,23.23
2018-03-22T14:05:29.993Z,21.50
2018-03-22T14:08:33.278Z,17.77
2018-03-22T14:11:36.645Z,19.23
2018-03-22T14:14:39.790Z,16.27
2018-03-22T14:17:43.223Z,18.07
2018-03-22T14:20:46.375Z,18.60
2018-03-22T14:23:49.600Z,17.20
2018-03-22T14:26:52.894Z,16.57
2018-03-22T14:29:56.088Z,18.80
2018-03-22T14:32:59.401Z,19.13
2018-03-22T14:36:02.589Z,18.63
2018-03-22T14:39:05.967Z,18.17
2018-03-22T14:42:09.270Z,18.33
2018-03-22T14:45:12.571Z,16.90
2018-03-22T14:48:15.742Z,16.90
2018-03-22T14:51:19.826Z,17.73
2018-03-22T14:54:23.042Z,19.50
2018-03-22T14:57:26.283Z,18.33
2018-03-22T15:00:29.620Z,18.57
2018-03-22T15:03:33.123Z,17.57
2018-03-22T15:06:36.390Z,18.90
2018-03-22T15:09:39.767Z,20.07
2018-03-22T15:12:42.983Z,16.67
2018-03-22T15:15:46.214Z,17.33
2018-03-22T15:18:49.910Z,20.33
2018-03-22T15:21:53.413Z,15.87
2018-03-22T15:24:56.708Z,14.50
2018-03-22T15:28:00.223Z,20.40
2018-03-22T15:31:03.590Z,21.93
2018-03-22T15:34:07.212Z,17.27
2018-03-22T15:37:10.430Z,19.53
2018-03-22T15:40:13.644Z,17.87
2018-03-22T15:43:16.850Z,19.97
2018-03-22T15:46:20.900Z,18.27
2018-03-22T15:49:24.166Z,20.80
2018-03-22T15:52:27.464Z,21.20
2018-03-22T15:55:30.640Z,22.10
2018-03-22T15:58:33.871Z,21.77
2018-03-22T16:01:37.205Z,20.33
2018-03-22T16:04:40.414Z,27.17
2018-03-22T16:07:43.727Z,20.80
2018-03-22T16:10:46.956Z,19.70
2018-03-22T16:13:50.201Z,19.80
2018-03-22T16:16:53.433Z,23.53
2018-03-22T16:19:56.648Z,22.00
2018-03-22T16:22:59.872Z,23.77
2018-03-22T16:26:03.050Z,22.20
2018-03-22T16:29:06.360Z,22.90
2018-03-22T16:32:09.624Z,22.77
2018-03-22T16:35:12.834Z,20.70
2018-03-22T16:38:16.102Z,22.30
2018-03-22T16:41:19.335Z,19.87
2018-03-22T16:44:24.100Z,21.60
2018-03-22T16:47:27.345Z,23.33
2018-03-22T16:50:30.490Z,24.70
2018-03-22T16:53:33.736Z,23.03
2018-03-22T16:56:37.175Z,21.53
2018-03-22T16:59:40.529Z,23.07
2018-03-22T17:02:43.834Z,23.23
2018-03-22T17:05:47.003Z,24.57
2018-03-22T17:08:51.374Z,21.67
2018-03-22T17:11:54.655Z,26.63
2018-03-22T17:14:58.079Z,21.63
2018-03-22T17:18:01.201Z,25.90
2018-03-22T17:21:04.402Z,22.63
2018-03-22T17:24:07.753Z,17.93
2018-03-22T17:27:11.252Z,20.33
2018-03-22T17:30:14.552Z,18.30
2018-03-22T17:33:17.813Z,17.13
2018-03-22T17:36:21.459Z,19.00
2018-03-22T17:39:24.851Z,20.80
2018-03-22T17:42:28.250Z,17.77
2018-03-22T17:45:31.538Z,18.20
2018-03-22T17:48:34.785Z,18.93
2018-03-22T17:51:37.984Z,19.07
2018-03-22T17:54:41.194Z,18.27
2018-03-22T17:57:45.884Z,18.80
2018-03-22T18:00:49.153Z,19.00
2018-03-22T18:03:52.483Z,17.97
2018-03-22T18:06:55.768Z,16.13
2018-03-22T18:09:59.161Z,21.10
2018-03-22T18:13:02.464Z,18.27
2018-03-22T18:16:05.812Z,20.03
2018-03-22T18:19:21.734Z,19.13
2018-03-22T18:22:24.989Z,18.97
2018-03-22T18:25:30.192Z,18.50
2018-03-22T18:28:38.166Z,21.07
2018-03-22T18:31:41.689Z,21.00
2018-03-22T18:34:46.234Z,18.97
2018-03-22T18:37:49.491Z,19.07
2018-03-22T18:40:52.829Z,18.53
2018-03-22T18:43:56.241Z,21.83
2018-03-22T18:47:00.514Z,20.37
2018-03-22T18:50:03.726Z,20.43
2018-03-22T18:53:07.030Z,18.27
2018-03-22T18:56:10.326Z,20.80
2018-03-22T18:59:19.342Z,22.33
2018-03-22T19:02:22.510Z,20.50
2018-03-22T19:05:27.855Z,20.70
2018-03-22T19:08:31.078Z,26.03
2018-03-22T19:11:37.429Z,22.80
2018-03-22T19:14:43.728Z,27.90
2018-03-22T19:17:48.151Z,23.27
2018-03-22T19:24:06.518Z,24.57
2018-03-22T19:27:10.018Z,21.63
2018-03-22T19:30:13.264Z,23.53
2018-03-22T19:33:18.048Z,27.20
2018-03-22T19:36:21.575Z,30.40
2018-03-22T19:39:24.883Z,27.87
2018-03-22T19:42:28.209Z,24.13
2018-03-22T19:45:31.477Z,26.37
2018-03-22T19:48:35.146Z,29.87
2018-03-22T19:51:38.350Z,26.83
2018-03-22T19:54:41.646Z,26.57
2018-03-22T19:57:45.891Z,25.87
2018-03-22T20:00:49.254Z,27.70
2018-03-22T20:03:52.663Z,25.90
2018-03-22T20:06:56.068Z,25.80
2018-03-22T20:09:59.468Z,25.07
2018-03-22T20:13:02.778Z,27.50
2018-03-22T20:16:06.407Z,27.47
2018-03-22T20:19:09.725Z,29.07
2018-03-22T20:22:13.004Z,27.43
2018-03-22T20:25:17.211Z,27.60
2018-03-22T20:28:20.510Z,28.03
2018-03-22T20:31:23.847Z,30.80
2018-03-22T20:34:27.091Z,26.87
2018-03-22T20:37:30.499Z,29.20
2018-03-22T20:40:33.722Z,27.60
2018-03-22T20:43:36.980Z,28.97
2018-03-22T20:46:40.275Z,33.00
2018-03-22T20:49:43.806Z,31.67
2018-03-22T20:52:47.083Z,29.30
2018-03-22T20:55:50.429Z,30.13
2018-03-22T20:58:53.862Z,30.50
2018-03-22T21:01:57.152Z,31.10
2018-03-22T21:05:00.498Z,31.20
2018-03-22T21:08:03.742Z,32.80
2018-03-22T21:11:06.999Z,30.60
2018-03-22T21:14:10.444Z,36.90
2018-03-22T21:17:13.679Z,31.90
2018-03-22T21:20:17.096Z,30.43
2018-03-22T21:23:20.474Z,32.73
2018-03-22T21:26:23.727Z,33.13
2018-03-22T21:29:26.947Z,30.90
2018-03-22T21:32:30.267Z,35.37
2018-03-22T21:35:33.663Z,31.83
2018-03-22T21:38:37.076Z,36.53
2018-03-22T21:41:49.237Z,30.30
2018-03-22T21:44:52.578Z,32.17
2018-03-22T21:47:56.815Z,31.27
2018-03-22T21:51:01.352Z,34.77
2018-03-22T21:54:04.751Z,33.43
2018-03-22T21:57:08.007Z,35.13
2018-03-22T22:00:11.484Z,32.63
2018-03-22T22:03:14.877Z,31.07
2018-03-22T22:06:18.231Z,34.20
2018-03-22T22:09:21.583Z,35.93
2018-03-22T22:12:24.920Z,33.27
2018-03-22T22:15:28.326Z,34.00
2018-03-22T22:18:32.021Z,33.03
2018-03-22T22:21:35.281Z,31.30
2018-03-22T22:24:38.656Z,32.63
2018-03-22T22:27:41.933Z,34.63
2018-03-22T22:30:45.594Z,33.57
2018-03-22T22:33:49.038Z,32.97
2018-03-22T22:36:52.315Z,32.43
2018-03-22T22:39:55.838Z,32.63
2018-03-22T22:42:59.213Z,31.30
2018-03-22T22:46:02.556Z,32.47
2018-03-22T22:49:05.878Z,34.07
2018-03-22T22:52:09.140Z,35.47
2018-03-22T22:55:12.384Z,34.50
2018-03-22T22:58:15.810Z,33.07
2018-03-22T23:01:19.105Z,34.30
2018-03-22T23:04:22.407Z,33.33
2018-03-22T23:07:25.710Z,34.40
2018-03-22T23:10:29.023Z,34.57
2018-03-22T23:13:32.290Z,38.67
2018-03-22T23:16:35.559Z,32.80
2018-03-22T23:19:38.955Z,34.90
2018-03-22T23:22:42.197Z,35.87
2018-03-22T23:25:45.648Z,31.37
2018-03-22T23:28:48.900Z,32.70
2018-03-22T23:31:52.206Z,34.50
2018-03-22T23:34:55.638Z,33.37
2018-03-22T23:37:59.030Z,37.03
2018-03-22T23:41:02.297Z,34.00
2018-03-22T23:44:05.498Z,33.83
2018-03-22T23:47:08.754Z,32.90
2018-03-22T23:50:12.005Z,31.90
2018-03-22T23:53:15.218Z,40.63
2018-03-22T23:56:18.474Z,35.40
2018-03-22T23:59:21.785Z,35.87
